Time,TemperatureF,DewpointF,PressureIn,WindDirection,WindDirectionDegrees,WindSpeedMPH,WindSpeedGustMPH,Humidity,HourlyPrecipIn,Conditions,Clouds,dailyrainin,SoftwareType,DateUTC
2013-02-05 00:01:00,17.0,15.0,-100.00,NNW,330,0.0,0.0,89,0.00,,,-99.99,,2013-02-05 06:01:00,
2013-02-05 00:11:00,18.0,16.0,-100.00,North,10,0.0,2.0,90,0.00,,,-99.99,,2013-02-05 06:11:00,
2013-02-05 00:21:00,18.0,16.0,-100.00,North,350,1.0,1.0,91,0.00,,,-99.99,,2013-02-05 06:21:00,
2013-02-05 00:32:00,18.0,16.0,-100.00,NW,320,1.0,2.0,91,0.00,,,-99.99,,2013-02-05 06:32:00,
2013-02-05 00:42:00,18.0,16.0,-100.00,WNW,295,0.0,2.0,91,0.00,,,-99.99,,2013-02-05 06:42:00,
2013-02-05 00:51:00,18.0,16.0,-100.00,WNW,295,0.0,2.0,91,0.00,,,-99.99,,2013-02-05 06:51:00,
2013-02-05 01:01:00,19.0,17.0,-100.00,ENE,60,0.0,0.0,91,0.00,,,-99.99,,2013-02-05 07:01:00,
2013-02-05 01:11:00,19.0,17.0,-100.00,NE,35,1.0,1.0,91,0.00,,,-99.99,,2013-02-05 07:11:00,
2013-02-05 01:22:00,20.0,18.0,-100.00,NNE,20,1.0,2.0,91,0.00,,,-99.99,,2013-02-05 07:22:00,
2013-02-05 01:32:00,20.0,18.0,-100.00,NNE,20,1.0,2.0,91,0.00,,,-99.99,,2013-02-05 07:32:00,
2013-02-05 01:41:00,20.0,18.0,-100.00,SE,135,1.0,2.0,91,0.00,,,-99.99,,2013-02-05 07:41:00,
2013-02-05 01:51:00,20.0,18.0,-100.00,SE,130,0.0,1.0,91,0.00,,,-99.99,,2013-02-05 07:51:00,
2013-02-05 02:01:00,21.0,19.0,-100.00,SE,140,1.0,1.0,91,0.00,,,-99.99,,2013-02-05 08:01:00,
2013-02-05 02:11:00,21.0,19.0,-100.00,SE,130,1.0,2.0,91,0.00,,,-99.99,,2013-02-05 08:11:00,
2013-02-05 02:21:00,21.0,19.0,-100.00,ESE,120,2.0,3.0,91,0.00,,,-99.99,,2013-02-05 08:21:00,
2013-02-05 02:31:00,21.0,19.0,-100.00,SE,125,2.0,4.0,91,0.00,,,-99.99,,2013-02-05 08:31:00,
2013-02-05 02:41:00,21.0,19.0,-100.00,SSE,155,1.0,3.0,91,0.00,,,-99.99,,2013-02-05 08:41:00,
2013-02-05 02:52:00,21.0,19.0,-100.00,SE,145,1.0,2.0,91,0.00,,,-99.99,,2013-02-05 08:52:00,
2013-02-05 03:02:00,22.0,20.0,-100.00,East,95,0.0,2.0,91,0.00,,,-99.99,,2013-02-05 09:02:00,
2013-02-05 03:11:00,22.0,20.0,-100.00,SE,145,1.0,2.0,91,0.00,,,-99.99,,2013-02-05 09:11:00,
2013-02-05 03:21:00,22.0,20.0,-100.00,SE,145,1.0,2.0,91,0.00,,,-99.99,,2013-02-05 09:21:00,
2013-02-05 03:32:00,22.0,20.0,-100.00,SE,145,0.0,2.0,91,0.00,,,-99.99,,2013-02-05 09:32:00,
2013-02-05 03:42:00,22.0,20.0,-100.00,SE,125,1.0,3.0,91,0.00,,,-99.99,,2013-02-05 09:42:00,
2013-02-05 03:51:00,22.0,20.0,-100.00,SE,145,2.0,4.0,91,0.00,,,-99.99,,2013-02-05 09:51:00,
2013-02-05 04:02:00,23.0,21.0,-100.00,NNE,20,0.0,4.0,91,0.00,,,-99.99,,2013-02-05 10:02:00,
2013-02-05 04:11:00,23.0,21.0,-100.00,SW,215,2.0,4.0,91,0.00,,,-99.99,,2013-02-05 10:11:00,
2013-02-05 04:21:00,24.0,21.0,-100.00,SSW,195,4.0,5.0,91,0.00,,,-99.99,,2013-02-05 10:21:00,
2013-02-05 04:32:00,24.0,22.0,-100.00,South,185,2.0,6.0,90,0.00,,,-99.99,,2013-02-05 10:32:00,
2013-02-05 04:42:00,24.0,21.0,-100.00,SSE,165,4.0,6.0,89,0.00,,,-99.99,,2013-02-05 10:42:00,
2013-02-05 04:52:00,24.0,21.0,-100.00,South,170,4.0,7.0,88,0.00,,,-99.99,,2013-02-05 10:52:00,
2013-02-05 05:01:00,24.0,21.0,-100.00,South,170,4.0,7.0,88,0.00,,,-99.99,,2013-02-05 11:01:00,
2013-02-05 05:11:00,24.0,21.0,-100.00,SSE,165,3.0,6.0,88,0.00,,,-99.99,,2013-02-05 11:11:00,
2013-02-05 05:22:00,24.0,21.0,-100.00,South,175,3.0,7.0,87,0.00,,,-99.99,,2013-02-05 11:22:00,
2013-02-05 05:32:00,24.0,21.0,-100.00,South,175,4.0,7.0,87,0.00,,,-99.99,,2013-02-05 11:32:00,
2013-02-05 05:41:00,24.0,21.0,-100.00,South,175,4.0,7.0,87,0.00,,,-99.99,,2013-02-05 11:41:00,
2013-02-05 05:52:00,24.0,21.0,-100.00,SSE,165,6.0,9.0,87,0.00,,,-99.99,,2013-02-05 11:52:00,
2013-02-05 06:01:00,25.0,21.0,-100.00,South,180,4.0,9.0,87,0.00,,,-99.99,,2013-02-05 12:01:00,
2013-02-05 06:12:00,25.0,21.0,-100.00,South,185,4.0,9.0,87,0.00,,,-99.99,,2013-02-05 12:12:00,
2013-02-05 06:21:00,25.0,21.0,-100.00,South,180,4.0,7.0,87,0.00,,,-99.99,,2013-02-05 12:21:00,
2013-02-05 06:32:00,25.0,21.0,-100.00,South,175,5.0,9.0,87,0.00,,,-99.99,,2013-02-05 12:32:00,
2013-02-05 06:42:00,25.0,21.0,-100.00,South,175,5.0,9.0,87,0.00,,,-99.99,,2013-02-05 12:42:00,
2013-02-05 06:52:00,24.0,21.0,-100.00,South,175,6.0,9.0,87,0.00,,,-99.99,,2013-02-05 12:52:00,
2013-02-05 07:01:00,24.0,21.0,-100.00,South,175,6.0,9.0,87,0.00,,,-99.99,,2013-02-05 13:01:00,
2013-02-05 07:12:00,24.0,21.0,-100.00,South,180,6.0,9.0,87,0.00,,,-99.99,,2013-02-05 13:12:00,
2013-02-05 07:21:00,24.0,21.0,-100.00,South,175,5.0,7.0,87,0.00,,,-99.99,,2013-02-05 13:21:00,
2013-02-05 07:32:00,24.0,21.0,-100.00,South,190,4.0,7.0,87,0.00,,,-99.99,,2013-02-05 13:32:00,
2013-02-05 07:42:00,24.0,21.0,-100.00,South,170,2.0,6.0,88,0.00,,,-99.99,,2013-02-05 13:42:00,
2013-02-05 07:51:00,24.0,21.0,-100.00,South,175,3.0,6.0,88,0.00,,,-99.99,,2013-02-05 13:51:00,
2013-02-05 08:01:00,24.0,21.0,-100.00,South,175,3.0,6.0,88,0.00,,,-99.99,,2013-02-05 14:01:00,
2013-02-05 08:12:00,24.0,21.0,-100.00,South,175,3.0,6.0,88,0.00,,,-99.99,,2013-02-05 14:12:00,
2013-02-05 08:21:00,24.0,21.0,-100.00,South,175,3.0,6.0,88,0.00,,,-99.99,,2013-02-05 14:21:00,
2013-02-05 08:31:00,25.0,22.0,-100.00,South,185,6.0,8.0,88,0.00,,,-99.99,,2013-02-05 14:31:00,
2013-02-05 08:42:00,26.0,23.0,-100.00,South,185,4.0,9.0,87,0.00,,,-99.99,,2013-02-05 14:42:00,
2013-02-05 08:52:00,26.0,23.0,-100.00,South,185,4.0,9.0,87,0.00,,,-99.99,,2013-02-05 14:52:00,
2013-02-05 09:02:00,26.0,23.0,-100.00,South,185,4.0,9.0,87,0.00,,,-99.99,,2013-02-05 15:02:00,
2013-02-05 09:11:00,26.0,23.0,-100.00,South,185,4.0,9.0,87,0.00,,,-99.99,,2013-02-05 15:11:00,
2013-02-05 09:21:00,28.0,24.0,-100.00,SSW,200,9.0,12.0,83,0.00,,,-99.99,,2013-02-05 15:21:00,
2013-02-05 09:32:00,29.0,24.0,-100.00,SSW,205,9.0,15.0,81,0.00,,,-99.99,,2013-02-05 15:32:00,
2013-02-05 09:42:00,29.0,24.0,-100.00,SSW,200,7.0,12.0,80,0.00,,,-99.99,,2013-02-05 15:42:00,
2013-02-05 09:52:00,31.0,24.0,-100.00,SSW,210,7.0,12.0,76,0.00,,,-99.99,,2013-02-05 15:52:00,
2013-02-05 10:01:00,31.0,24.0,-100.00,SSW,210,7.0,12.0,76,0.00,,,-99.99,,2013-02-05 16:01:00,
2013-02-05 10:11:00,31.0,24.0,-100.00,SSW,195,9.0,13.0,74,0.00,,,-99.99,,2013-02-05 16:11:00,
2013-02-05 10:22:00,32.0,24.0,-100.00,SW,230,6.0,12.0,73,0.00,,,-99.99,,2013-02-05 16:22:00,
2013-02-05 10:32:00,33.0,25.0,-100.00,SW,215,6.0,12.0,72,0.00,,,-99.99,,2013-02-05 16:32:00,
2013-02-05 10:42:00,33.0,25.0,-100.00,SW,215,6.0,12.0,72,0.00,,,-99.99,,2013-02-05 16:42:00,
2013-02-05 10:51:00,34.0,25.0,-100.00,SW,235,6.0,13.0,69,0.00,,,-99.99,,2013-02-05 16:51:00,
2013-02-05 11:01:00,34.0,25.0,-100.00,SW,235,6.0,13.0,69,0.00,,,-99.99,,2013-02-05 17:01:00,
2013-02-05 11:11:00,34.0,25.0,-100.00,SW,235,6.0,13.0,69,0.00,,,-99.99,,2013-02-05 17:11:00,
2013-02-05 11:22:00,36.0,25.0,-100.00,WSW,245,6.0,12.0,65,0.00,,,-99.99,,2013-02-05 17:22:00,
2013-02-05 11:32:00,37.0,26.0,-100.00,WSW,250,5.0,11.0,64,0.00,,,-99.99,,2013-02-05 17:32:00,
2013-02-05 11:42:00,37.0,26.0,-100.00,SW,230,6.0,11.0,63,0.00,,,-99.99,,2013-02-05 17:42:00,
2013-02-05 11:52:00,38.0,26.0,-100.00,SW,230,6.0,12.0,62,0.00,,,-99.99,,2013-02-05 17:52:00,
2013-02-05 12:02:00,38.0,26.0,-100.00,SW,230,6.0,12.0,62,0.00,,,-99.99,,2013-02-05 18:02:00,
2013-02-05 12:11:00,40.0,26.0,-100.00,WNW,285,9.0,14.0,56,0.00,,,-99.99,,2013-02-05 18:11:00,
2013-02-05 12:21:00,41.0,26.0,-100.00,WNW,295,7.0,14.0,55,0.00,,,-99.99,,2013-02-05 18:21:00,
2013-02-05 12:32:00,42.0,27.0,-100.00,SW,225,3.0,13.0,54,0.00,,,-99.99,,2013-02-05 18:32:00,
2013-02-05 12:42:00,41.0,26.0,-100.00,WSW,255,6.0,16.0,54,0.00,,,-99.99,,2013-02-05 18:42:00,
2013-02-05 12:52:00,42.0,26.0,-100.00,WNW,295,9.0,16.0,54,0.00,,,-99.99,,2013-02-05 18:52:00,
2013-02-05 13:02:00,41.0,26.0,-100.00,WNW,295,11.0,21.0,54,0.00,,,-99.99,,2013-02-05 19:02:00,
2013-02-05 13:11:00,42.0,27.0,-100.00,NNW,330,9.0,14.0,54,0.00,,,-99.99,,2013-02-05 19:11:00,
2013-02-05 13:21:00,42.0,27.0,-100.00,NW,325,12.0,19.0,54,0.00,,,-99.99,,2013-02-05 19:21:00,
2013-02-05 13:32:00,42.0,27.0,-100.00,NNW,335,9.0,17.0,55,0.00,,,-99.99,,2013-02-05 19:32:00,
2013-02-05 13:42:00,42.0,27.0,-100.00,NW,325,9.0,17.0,55,0.00,,,-99.99,,2013-02-05 19:42:00,
2013-02-05 13:52:00,40.0,26.0,-100.00,NW,305,12.0,19.0,57,0.00,,,-99.99,,2013-02-05 19:52:00,
2013-02-05 14:01:00,40.0,26.0,-100.00,NW,305,12.0,19.0,57,0.00,,,-99.99,,2013-02-05 20:01:00,
2013-02-05 14:11:00,40.0,27.0,-100.00,NNW,330,10.0,16.0,59,0.00,,,-99.99,,2013-02-05 20:11:00,
2013-02-05 14:21:00,40.0,27.0,-100.00,NW,310,6.0,15.0,61,0.00,,,-99.99,,2013-02-05 20:21:00,
2013-02-05 14:32:00,40.0,28.0,-100.00,NW,315,7.0,16.0,62,0.00,,,-99.99,,2013-02-05 20:32:00,
2013-02-05 14:42:00,40.0,28.0,-100.00,NW,325,7.0,12.0,62,0.00,,,-99.99,,2013-02-05 20:42:00,
2013-02-05 14:52:00,41.0,29.0,-100.00,NW,315,6.0,12.0,62,0.00,,,-99.99,,2013-02-05 20:52:00,
2013-02-05 15:02:00,41.0,29.0,-100.00,NW,315,6.0,10.0,61,0.00,,,-99.99,,2013-02-05 21:02:00,
2013-02-05 15:11:00,41.0,29.0,-100.00,NNW,330,8.0,14.0,62,0.00,,,-99.99,,2013-02-05 21:11:00,
2013-02-05 15:21:00,41.0,29.0,-100.00,NNW,330,11.0,17.0,62,0.00,,,-99.99,,2013-02-05 21:21:00,
2013-02-05 15:32:00,41.0,29.0,-100.00,NNW,340,10.0,16.0,62,0.00,,,-99.99,,2013-02-05 21:32:00,
2013-02-05 15:42:00,42.0,30.0,-100.00,NW,320,10.0,14.0,62,0.00,,,-99.99,,2013-02-05 21:42:00,
2013-02-05 15:51:00,42.0,30.0,-100.00,NW,310,11.0,17.0,62,0.00,,,-99.99,,2013-02-05 21:51:00,
2013-02-05 16:01:00,41.0,29.0,-100.00,NW,315,7.0,19.0,62,0.00,,,-99.99,,2013-02-05 22:01:00,
2013-02-05 16:11:00,40.0,29.0,-100.00,NNW,330,7.0,16.0,63,0.00,,,-99.99,,2013-02-05 22:11:00,
2013-02-05 16:21:00,41.0,30.0,-100.00,NW,310,7.0,13.0,64,0.00,,,-99.99,,2013-02-05 22:21:00,
2013-02-05 16:32:00,40.0,29.0,-100.00,NW,325,7.0,14.0,64,0.00,,,-99.99,,2013-02-05 22:32:00,
2013-02-05 16:42:00,40.0,29.0,-100.00,WNW,295,7.0,14.0,64,0.00,,,-99.99,,2013-02-05 22:42:00,
2013-02-05 16:51:00,40.0,29.0,-100.00,NNW,330,9.0,19.0,64,0.00,,,-99.99,,2013-02-05 22:51:00,
2013-02-05 17:02:00,40.0,29.0,-100.00,NNW,330,9.0,19.0,64,0.00,,,-99.99,,2013-02-05 23:02:00,
2013-02-05 17:11:00,39.0,29.0,-100.00,NNW,330,6.0,16.0,66,0.00,,,-99.99,,2013-02-05 23:11:00,
2013-02-05 17:21:00,39.0,29.0,-100.00,NW,325,9.0,17.0,65,0.00,,,-99.99,,2013-02-05 23:21:00,
2013-02-05 17:32:00,39.0,28.0,-100.00,NW,320,7.0,12.0,66,0.00,,,-99.99,,2013-02-05 23:32:00,
2013-02-05 17:42:00,38.0,28.0,-100.00,NNW,330,7.0,14.0,66,0.00,,,-99.99,,2013-02-05 23:42:00,
2013-02-05 17:52:00,38.0,28.0,-100.00,NNW,340,6.0,11.0,67,0.00,,,-99.99,,2013-02-05 23:52:00,
2013-02-05 18:02:00,38.0,28.0,-100.00,North,350,5.0,11.0,68,0.00,,,-99.99,,2013-02-06 00:02:00,
2013-02-05 18:11:00,37.0,28.0,-100.00,WNW,295,4.0,7.0,69,0.00,,,-99.99,,2013-02-06 00:11:00,
2013-02-05 18:21:00,37.0,29.0,-100.00,North,0,6.0,8.0,70,0.00,,,-99.99,,2013-02-06 00:21:00,
2013-02-05 18:32:00,37.0,29.0,-100.00,North,0,7.0,10.0,71,0.00,,,-99.99,,2013-02-06 00:32:00,
2013-02-05 18:42:00,37.0,29.0,-100.00,WNW,295,4.0,7.0,71,0.00,,,-99.99,,2013-02-06 00:42:00,
2013-02-05 18:52:00,37.0,28.0,-100.00,NW,325,5.0,9.0,70,0.00,,,-99.99,,2013-02-06 00:52:00,
2013-02-05 19:02:00,37.0,28.0,-100.00,NW,325,5.0,9.0,70,0.00,,,-99.99,,2013-02-06 01:02:00,
2013-02-05 19:11:00,37.0,28.0,-100.00,North,350,4.0,9.0,69,0.00,,,-99.99,,2013-02-06 01:11:00,
2013-02-05 19:21:00,37.0,28.0,-100.00,North,350,4.0,9.0,69,0.00,,,-99.99,,2013-02-06 01:21:00,
2013-02-05 19:32:00,36.0,28.0,-100.00,NNW,340,4.0,6.0,69,0.00,,,-99.99,,2013-02-06 01:32:00,
2013-02-05 19:42:00,36.0,27.0,-100.00,NNW,335,3.0,5.0,70,0.00,,,-99.99,,2013-02-06 01:42:00,
2013-02-05 19:52:00,35.0,27.0,-100.00,WNW,290,1.0,6.0,71,0.00,,,-99.99,,2013-02-06 01:52:00,
2013-02-05 20:01:00,35.0,27.0,-100.00,WNW,285,2.0,4.0,72,0.00,,,-99.99,,2013-02-06 02:01:00,
2013-02-05 20:11:00,34.0,26.0,-100.00,WSW,245,1.0,4.0,72,0.00,,,-99.99,,2013-02-06 02:11:00,
2013-02-05 20:22:00,33.0,26.0,-100.00,SSE,160,0.0,2.0,73,0.00,,,-99.99,,2013-02-06 02:22:00,
2013-02-05 20:32:00,32.0,26.0,-100.00,South,180,1.0,2.0,76,0.00,,,-99.99,,2013-02-06 02:32:00,
2013-02-05 20:42:00,31.0,25.0,-100.00,South,180,0.0,2.0,77,0.00,,,-99.99,,2013-02-06 02:42:00,
2013-02-05 20:52:00,31.0,25.0,-100.00,SW,220,0.0,1.0,79,0.00,,,-99.99,,2013-02-06 02:52:00,
2013-02-05 21:02:00,30.0,25.0,-100.00,SSE,165,1.0,2.0,81,0.00,,,-99.99,,2013-02-06 03:02:00,
2013-02-05 21:12:00,29.0,25.0,-100.00,SSW,200,0.0,2.0,83,0.00,,,-99.99,,2013-02-06 03:12:00,
2013-02-05 21:22:00,29.0,25.0,-100.00,South,190,0.0,0.0,84,0.00,,,-99.99,,2013-02-06 03:22:00,
2013-02-05 21:32:00,29.0,26.0,-100.00,SSW,200,0.0,1.0,85,0.00,,,-99.99,,2013-02-06 03:32:00,
2013-02-05 21:42:00,29.0,25.0,-100.00,SW,230,0.0,0.0,86,0.00,,,-99.99,,2013-02-06 03:42:00,
2013-02-05 21:52:00,28.0,25.0,-100.00,NW,320,0.0,0.0,87,0.00,,,-99.99,,2013-02-06 03:52:00,
2013-02-05 22:02:00,28.0,25.0,-100.00,North,0,0.0,2.0,88,0.00,,,-99.99,,2013-02-06 04:02:00,
2013-02-05 22:11:00,28.0,25.0,-100.00,WNW,290,0.0,2.0,89,0.00,,,-99.99,,2013-02-06 04:11:00,
2013-02-05 22:21:00,28.0,25.0,-100.00,WNW,290,0.0,2.0,89,0.00,,,-99.99,,2013-02-06 04:21:00,
2013-02-05 22:32:00,27.0,25.0,-100.00,NNW,330,0.0,1.0,90,0.00,,,-99.99,,2013-02-06 04:32:00,
2013-02-05 22:42:00,27.0,24.0,-100.00,NNW,330,0.0,0.0,91,0.00,,,-99.99,,2013-02-06 04:42:00,
2013-02-05 22:51:00,27.0,24.0,-100.00,NNW,330,0.0,0.0,91,0.00,,,-99.99,,2013-02-06 04:51:00,
2013-02-05 23:02:00,26.0,24.0,-100.00,North,0,0.0,1.0,92,0.00,,,-99.99,,2013-02-06 05:02:00,
2013-02-05 23:12:00,26.0,25.0,-100.00,SSW,210,0.0,2.0,92,0.00,,,-99.99,,2013-02-06 05:12:00,
2013-02-05 23:22:00,26.0,25.0,-100.00,SSW,210,0.0,2.0,92,0.00,,,-99.99,,2013-02-06 05:22:00,
2013-02-05 23:31:00,26.0,24.0,-100.00,WNW,290,0.0,1.0,93,0.00,,,-99.99,,2013-02-06 05:31:00,
2013-02-05 23:41:00,26.0,24.0,-100.00,NNW,340,1.0,1.0,93,0.00,,,-99.99,,2013-02-06 05:41:00,
2013-02-05 23:52:00,26.0,24.0,-100.00,NNW,340,1.0,1.0,93,0.00,,,-99.99,,2013-02-06 05:52:00,